Time;durP1;ratioP1;P1;durP2;ratioP2;P2;SDS_P1;SDS_P2;PMS_P1;PMS_P2;Temp;Humidity;BMP_temperature;BMP_pressure;BME280_temperature;BME280_humidity;BME280_pressure;Samples;Min_cycle;Max_cycle;Signal;HPM_P1;HPM_P2
2022/10/05 00:00:21;;;;;;;15.93;6.78;;;10.10;99.90;;;;;;6248058;28;20054;-80
2022/10/05 00:03:27;;;;;;;14.35;5.75;;;10.10;99.90;;;;;;6249031;28;20057;-80
2022/10/05 00:06:30;;;;;;;23.67;7.75;;;10.00;99.90;;;;;;6249321;28;20525;-80
2022/10/05 00:09:33;;;;;;;9.25;5.45;;;10.00;99.90;;;;;;6248905;28;20384;-80
2022/10/05 00:12:35;;;;;;;16.65;5.97;;;10.00;99.90;;;;;;6249608;28;20045;-80
2022/10/05 00:15:36;;;;;;;11.15;6.32;;;10.00;99.90;;;;;;6248426;28;20064;-80
2022/10/05 00:18:39;;;;;;;11.32;5.90;;;10.00;99.90;;;;;;6250049;28;20045;-81
2022/10/05 00:21:42;;;;;;;12.45;6.68;;;9.90;99.90;;;;;;6249327;28;20045;-81
2022/10/05 00:24:44;;;;;;;10.23;6.35;;;9.90;99.90;;;;;;6249037;28;20049;-80
2022/10/05 00:27:52;;;;;;;15.20;5.90;;;9.90;99.90;;;;;;6238438;28;20081;-81
2022/10/05 00:30:55;;;;;;;13.60;6.07;;;9.90;99.90;;;;;;6242927;28;20052;-82
2022/10/05 00:33:57;;;;;;;24.58;6.57;;;9.80;99.90;;;;;;6235567;28;20495;-81
2022/10/05 00:37:00;;;;;;;10.43;5.80;;;9.70;99.90;;;;;;6249215;28;20052;-81
2022/10/05 00:40:07;;;;;;;10.27;5.57;;;9.70;99.90;;;;;;6247989;28;20526;-81
2022/10/05 00:43:22;;;;;;;12.77;5.72;;;9.70;99.90;;;;;;6248779;28;20046;-81
2022/10/05 00:46:29;;;;;;;17.52;5.65;;;9.60;99.90;;;;;;6248404;28;20521;-80
2022/10/05 00:49:53;;;;;;;13.25;5.22;;;9.60;99.90;;;;;;6248678;28;20038;-80
2022/10/05 00:53:03;;;;;;;10.95;6.53;;;9.60;99.90;;;;;;6248964;28;20057;-80
2022/10/05 00:56:13;;;;;;;7.50;4.82;;;9.50;99.90;;;;;;6248782;28;20052;-80
2022/10/05 00:59:27;;;;;;;13.50;5.70;;;9.50;99.90;;;;;;6248871;28;20053;-80
2022/10/05 01:02:37;;;;;;;10.00;5.45;;;9.50;99.90;;;;;;6248026;28;20045;-80
2022/10/05 01:05:52;;;;;;;22.33;6.20;;;9.40;99.90;;;;;;6250370;28;20045;-80
2022/10/05 01:09:03;;;;;;;12.38;5.10;;;9.40;99.90;;;;;;6253049;28;20046;-80
2022/10/05 01:12:12;;;;;;;13.52;5.05;;;9.40;99.90;;;;;;6253158;28;20048;-80
2022/10/05 01:15:19;;;;;;;18.23;7.45;;;9.40;99.90;;;;;;6253442;28;20052;-80
2022/10/05 01:18:27;;;;;;;12.27;5.50;;;9.30;99.90;;;;;;6253135;28;20038;-80
2022/10/05 01:21:35;;;;;;;16.30;4.88;;;9.30;99.90;;;;;;6253500;28;20056;-80
2022/10/05 01:25:02;;;;;;;9.52;4.82;;;9.30;99.90;;;;;;6253140;28;20057;-81
2022/10/05 01:28:11;;;;;;;11.90;5.30;;;9.30;99.90;;;;;;6248356;28;20073;-81
2022/10/05 01:31:22;;;;;;;8.68;4.85;;;9.20;99.90;;;;;;6228391;28;20049;-82
2022/10/05 01:34:35;;;;;;;8.23;3.88;;;9.10;99.90;;;;;;6228594;28;20046;-81
2022/10/05 01:37:47;;;;;;;14.65;5.07;;;9.10;99.90;;;;;;6228041;28;20061;-80
2022/10/05 01:40:59;;;;;;;10.85;4.68;;;9.10;99.90;;;;;;6228005;28;20061;-80
2022/10/05 01:44:06;;;;;;;8.43;5.43;;;9.00;99.90;;;;;;6228138;28;20052;-80
2022/10/05 01:47:11;;;;;;;9.02;4.38;;;9.00;99.90;;;;;;6229385;28;20058;-81
2022/10/05 01:50:22;;;;;;;12.73;5.68;;;9.00;99.90;;;;;;6227977;28;20049;-80
2022/10/05 01:53:37;;;;;;;9.73;3.90;;;9.00;99.90;;;;;;6227772;28;20427;-80
2022/10/05 01:56:46;;;;;;;11.65;4.50;;;9.00;99.90;;;;;;6227938;28;20057;-80
2022/10/05 02:00:02;;;;;;;10.07;4.63;;;9.00;99.90;;;;;;6226857;28;20053;-80
2022/10/05 02:03:11;;;;;;;12.07;4.80;;;9.00;99.90;;;;;;6226198;28;20081;-80
2022/10/05 02:06:18;;;;;;;11.20;5.30;;;9.00;99.90;;;;;;6226281;28;20049;-80
2022/10/05 02:09:25;;;;;;;9.07;4.93;;;8.90;99.90;;;;;;6225972;28;20693;-80
2022/10/05 02:12:31;;;;;;;9.65;4.55;;;9.00;99.90;;;;;;6227314;28;20050;-81
2022/10/05 02:15:40;;;;;;;9.40;4.05;;;9.00;99.90;;;;;;6229219;28;20050;-81
2022/10/05 02:18:49;;;;;;;12.18;4.15;;;9.00;99.90;;;;;;6229515;28;20049;-81
2022/10/05 02:21:54;;;;;;;11.75;4.28;;;8.90;99.90;;;;;;6229307;28;20423;-81
2022/10/05 02:24:59;;;;;;;16.00;5.00;;;8.90;99.90;;;;;;6229672;28;20050;-81
2022/10/05 02:28:05;;;;;;;8.90;4.45;;;8.90;99.90;;;;;;6230120;28;20042;-82
2022/10/05 02:39:10;;;;;;;9.05;5.05;;;8.80;99.90;;;;;;6249240;28;20037;-81
2022/10/05 02:42:21;;;;;;;13.35;5.55;;;8.80;99.90;;;;;;6243421;28;20068;-81
2022/10/05 02:45:33;;;;;;;14.30;4.85;;;8.80;99.90;;;;;;6250597;28;20045;-80
2022/10/05 02:48:44;;;;;;;9.75;4.93;;;8.70;99.90;;;;;;6250409;28;20044;-80
2022/10/05 02:51:55;;;;;;;9.95;4.10;;;8.70;99.90;;;;;;6250638;28;20399;-81
2022/10/05 02:55:05;;;;;;;7.43;4.30;;;8.70;99.90;;;;;;6250949;28;20054;-80
2022/10/05 02:58:13;;;;;;;12.43;5.05;;;8.80;99.90;;;;;;6250533;28;20117;-81
2022/10/05 03:01:23;;;;;;;32.08;7.82;;;8.90;99.90;;;;;;6249706;28;20053;-80
2022/10/05 03:04:34;;;;;;;17.80;6.22;;;9.00;99.90;;;;;;6250331;28;20045;-80
2022/10/05 03:07:41;;;;;;;25.95;6.60;;;9.20;99.90;;;;;;6250422;28;20053;-81
2022/10/05 03:10:57;;;;;;;21.55;5.63;;;9.30;99.90;;;;;;6250208;28;20411;-81
2022/10/05 03:14:06;;;;;;;65.22;9.40;;;9.50;99.90;;;;;;6250054;28;20049;-81
2022/10/05 03:17:15;;;;;;;39.25;8.23;;;9.60;99.90;;;;;;6249765;28;20053;-81
2022/10/05 03:20:29;;;;;;;44.72;8.18;;;9.80;99.90;;;;;;6249700;28;20049;-81
2022/10/05 03:23:43;;;;;;;11.38;5.85;;;10.00;99.90;;;;;;6250356;28;20060;-81
2022/10/05 03:26:56;;;;;;;33.72;7.13;;;10.20;99.90;;;;;;6250543;28;20049;-81
2022/10/05 03:30:04;;;;;;;13.55;6.60;;;10.20;99.90;;;;;;6247677;28;20052;-81
2022/10/05 03:33:13;;;;;;;26.85;6.95;;;10.40;99.90;;;;;;6240920;28;20049;-81
2022/10/05 03:36:24;;;;;;;25.98;7.57;;;10.30;99.90;;;;;;6250184;28;20050;-81
2022/10/05 03:39:32;;;;;;;17.08;7.38;;;10.40;99.90;;;;;;6249778;28;20053;-80
2022/10/05 03:42:45;;;;;;;20.25;6.55;;;10.30;99.90;;;;;;6249814;28;20049;-81
2022/10/05 03:45:53;;;;;;;18.25;7.03;;;10.20;99.90;;;;;;6248607;28;20511;-80
2022/10/05 03:49:01;;;;;;;10.38;5.75;;;10.00;99.90;;;;;;6249061;28;20045;-80
2022/10/05 03:52:09;;;;;;;18.90;5.75;;;10.00;99.90;;;;;;6249653;28;20491;-80
2022/10/05 03:55:19;;;;;;;17.40;6.80;;;10.00;99.90;;;;;;6249854;28;20056;-80
2022/10/05 03:58:27;;;;;;;13.38;6.10;;;10.10;99.90;;;;;;6248015;28;20541;-80
2022/10/05 04:01:38;;;;;;;21.70;7.95;;;10.10;99.90;;;;;;6249447;28;20049;-81
2022/10/05 04:04:46;;;;;;;27.25;7.95;;;10.20;99.90;;;;;;6249062;28;20045;-80
2022/10/05 04:07:50;;;;;;;;;;;10.30;99.90;;;;;;6249275;28;20049;-81
2022/10/05 04:10:54;;;;;;;24.27;7.38;;;10.40;99.90;;;;;;6249148;28;19921;-81
2022/10/05 04:14:03;;;;;;;18.67;7.10;;;10.50;99.90;;;;;;6248883;28;20057;-79
2022/10/05 04:17:06;;;;;;;;;;;10.50;99.90;;;;;;6251187;28;20076;-81
2022/10/05 04:20:17;;;;;;;27.60;7.25;;;10.50;99.90;;;;;;6250087;28;19932;-80
2022/10/05 04:23:26;;;;;;;19.70;6.47;;;10.60;99.90;;;;;;6248378;28;20049;-80
2022/10/05 04:26:36;;;;;;;16.05;6.65;;;10.50;99.90;;;;;;6247675;28;20057;-81
2022/10/05 04:29:44;;;;;;;18.30;7.15;;;10.50;99.90;;;;;;6247383;28;20045;-82
2022/10/05 04:32:50;;;;;;;29.55;7.20;;;10.50;99.90;;;;;;6229406;28;20046;-80
2022/10/05 04:36:04;;;;;;;18.95;6.68;;;10.50;99.90;;;;;;6223043;28;20134;-81
2022/10/05 04:39:20;;;;;;;26.00;8.00;;;10.50;99.90;;;;;;6223578;28;20053;-80
2022/10/05 04:42:28;;;;;;;27.27;8.27;;;10.60;99.90;;;;;;6227546;28;20520;-80
2022/10/05 04:45:43;;;;;;;23.25;8.05;;;10.60;99.90;;;;;;6227736;28;20061;-80
2022/10/05 04:49:15;;;;;;;13.60;7.90;;;10.60;99.90;;;;;;6227109;28;20512;-80
2022/10/05 04:52:22;;;;;;;31.40;7.80;;;10.50;99.90;;;;;;6217040;28;20050;-80
2022/10/05 04:55:31;;;;;;;33.50;7.97;;;10.50;99.90;;;;;;6228366;28;20057;-79
2022/10/05 04:58:45;;;;;;;28.08;8.30;;;10.50;99.90;;;;;;6226870;28;20046;-80
2022/10/05 05:02:05;;;;;;;28.15;7.43;;;10.50;99.90;;;;;;6227243;28;20053;-80
2022/10/05 05:05:27;;;;;;;25.40;7.30;;;10.40;99.90;;;;;;6227009;28;20053;-80
2022/10/05 05:08:47;;;;;;;20.38;7.13;;;10.30;99.90;;;;;;6228881;28;20056;-80
2022/10/05 05:12:03;;;;;;;21.63;6.78;;;10.20;99.90;;;;;;6226947;28;20064;-80
2022/10/05 05:15:21;;;;;;;22.20;7.43;;;10.10;99.90;;;;;;6228928;28;20562;-83
2022/10/05 05:18:52;;;;;;;19.75;6.70;;;10.10;99.90;;;;;;6229287;28;20046;-82
2022/10/05 05:22:01;;;;;;;18.00;6.43;;;10.10;99.90;;;;;;6253069;28;20407;-82
2022/10/05 05:25:21;;;;;;;13.52;6.28;;;10.10;99.90;;;;;;6253887;28;20422;-82
2022/10/05 05:28:31;;;;;;;14.65;6.80;;;10.00;99.90;;;;;;6252151;28;20116;-83
2022/10/05 05:31:43;;;;;;;15.23;6.95;;;9.90;99.90;;;;;;6252221;28;20127;-82
2022/10/05 05:34:58;;;;;;;11.88;6.10;;;9.90;99.90;;;;;;6234596;28;20057;-81
2022/10/05 05:38:10;;;;;;;10.25;5.18;;;9.90;99.90;;;;;;6227144;28;20050;-82
2022/10/05 05:41:14;;;;;;;14.57;6.53;;;9.80;99.90;;;;;;6228475;28;20376;-82
2022/10/05 05:44:23;;;;;;;18.60;6.68;;;9.80;99.90;;;;;;6227565;28;20046;-82
2022/10/05 05:47:33;;;;;;;12.60;6.43;;;9.80;99.90;;;;;;6227713;28;20050;-82
2022/10/05 05:50:44;;;;;;;15.65;7.10;;;9.70;99.90;;;;;;6227798;28;20484;-82
2022/10/05 05:53:50;;;;;;;11.63;5.35;;;9.80;99.90;;;;;;6226498;28;20053;-82
2022/10/05 05:56:58;;;;;;;13.73;6.90;;;9.80;99.90;;;;;;6226584;28;20065;-82
2022/10/05 06:00:07;;;;;;;14.60;6.80;;;9.80;99.90;;;;;;6226624;28;20038;-82
2022/10/05 06:03:15;;;;;;;12.55;5.82;;;9.90;99.90;;;;;;6226249;28;20057;-80
2022/10/05 06:06:22;;;;;;;16.65;6.30;;;10.00;99.90;;;;;;6225333;28;20050;-80
2022/10/05 06:09:30;;;;;;;9.88;5.75;;;10.00;99.90;;;;;;6225079;28;20042;-80
2022/10/05 06:12:35;;;;;;;14.57;6.57;;;10.10;99.90;;;;;;6244270;28;20434;-81
2022/10/05 06:15:41;;;;;;;13.90;6.35;;;10.10;99.90;;;;;;6250096;28;20045;-79
2022/10/05 06:18:47;;;;;;;15.02;6.00;;;10.20;99.90;;;;;;6249999;28;20743;-80
2022/10/05 06:21:58;;;;;;;14.82;7.50;;;10.40;99.90;;;;;;6250507;28;20045;-80
2022/10/05 06:25:14;;;;;;;18.90;7.25;;;10.50;99.90;;;;;;6250317;28;20052;-80
2022/10/05 06:28:16;;;;;;;25.98;6.93;;;10.70;99.90;;;;;;6250178;28;20053;-80
2022/10/05 06:31:28;;;;;;;19.98;7.10;;;10.80;99.90;;;;;;6250549;28;20049;-80
2022/10/05 06:34:52;;;;;;;15.02;7.45;;;10.90;99.90;;;;;;6234204;28;20054;-80
2022/10/05 06:38:20;;;;;;;14.20;6.07;;;11.10;99.90;;;;;;6224677;28;20041;-81
2022/10/05 06:41:34;;;;;;;15.60;7.20;;;11.20;99.90;;;;;;6224568;28;20049;-80
2022/10/05 06:44:43;;;;;;;19.80;6.22;;;11.30;99.90;;;;;;6224791;28;20427;-80
2022/10/05 06:47:50;;;;;;;12.70;5.70;;;11.50;99.90;;;;;;6224746;28;20049;-80
2022/10/05 06:50:59;;;;;;;16.98;6.03;;;11.60;99.90;;;;;;6225127;28;20053;-81
2022/10/05 06:54:12;;;;;;;18.98;7.65;;;11.80;99.90;;;;;;6224570;28;20529;-80
2022/10/05 06:57:29;;;;;;;11.77;6.53;;;11.90;99.90;;;;;;6208048;28;20056;-80
2022/10/05 07:00:38;;;;;;;17.25;7.28;;;12.10;99.90;;;;;;6251252;28;20045;-80
2022/10/05 07:03:51;;;;;;;14.00;6.72;;;12.30;99.90;;;;;;6230146;28;20532;-80
2022/10/05 07:06:57;;;;;;;14.25;6.10;;;12.70;99.90;;;;;;6225429;28;20061;-82
2022/10/05 07:10:15;;;;;;;17.05;7.18;;;13.10;99.90;;;;;;6225301;28;20049;-81
2022/10/05 07:13:37;;;;;;;21.02;9.13;;;13.50;99.90;;;;;;6226237;28;20050;-82
2022/10/05 07:16:49;;;;;;;19.15;8.90;;;13.60;99.90;;;;;;6225102;28;20049;-82
2022/10/05 07:19:57;;;;;;;18.08;8.10;;;13.70;99.90;;;;;;6225538;28;20057;-81
2022/10/05 07:23:21;;;;;;;19.88;8.38;;;14.00;99.90;;;;;;6225264;28;20053;-81
2022/10/05 07:26:30;;;;;;;21.10;8.43;;;14.20;99.90;;;;;;6225034;28;20052;-82
2022/10/05 07:29:39;;;;;;;13.95;7.22;;;14.60;99.90;;;;;;6244792;28;20052;-81
2022/10/05 07:32:49;;;;;;;15.93;7.22;;;14.90;99.90;;;;;;6249503;28;20553;-81
2022/10/05 07:39:26;;;;;;;12.45;6.82;;;15.30;99.90;;;;;;6249373;28;20081;-81
2022/10/05 07:42:43;;;;;;;15.15;7.25;;;15.50;99.90;;;;;;6246766;28;20038;-81
2022/10/05 07:45:46;;;;;;;11.88;7.82;;;15.70;99.90;;;;;;6249833;28;20045;-81
2022/10/05 07:49:01;;;;;;;12.05;6.93;;;15.90;99.90;;;;;;6249340;28;20045;-81
2022/10/05 07:52:09;;;;;;;21.75;7.72;;;15.90;99.90;;;;;;6248970;28;20304;-81
2022/10/05 07:55:17;;;;;;;14.20;8.20;;;15.90;99.90;;;;;;6250089;28;20057;-81
2022/10/05 07:58:28;;;;;;;16.95;8.10;;;16.20;99.90;;;;;;6250210;28;20045;-81
2022/10/05 08:01:34;;;;;;;17.25;9.40;;;16.60;99.90;;;;;;6249439;28;20049;-81
2022/10/05 08:04:44;;;;;;;14.27;7.47;;;17.00;99.90;;;;;;6249502;28;20519;-81
2022/10/05 08:07:48;;;;;;;13.80;8.30;;;17.30;99.90;;;;;;6249070;28;20514;-81
2022/10/05 08:10:55;;;;;;;17.67;8.68;;;17.40;99.90;;;;;;6249940;28;20049;-81
2022/10/05 08:14:05;;;;;;;11.77;7.50;;;17.70;99.90;;;;;;6246175;28;20087;-81
2022/10/05 08:17:14;;;;;;;14.18;7.60;;;18.20;99.90;;;;;;6246484;28;20057;-81
2022/10/05 08:20:34;;;;;;;12.20;7.68;;;18.40;99.90;;;;;;6246515;28;20056;-81
2022/10/05 08:23:40;;;;;;;11.80;8.13;;;18.40;99.90;;;;;;6246304;28;20057;-81
2022/10/05 08:26:51;;;;;;;15.68;8.20;;;18.40;99.90;;;;;;6247721;28;20061;-81
2022/10/05 08:30:00;;;;;;;9.38;6.28;;;18.70;99.90;;;;;;6247229;28;20065;-81
2022/10/05 08:33:07;;;;;;;10.50;6.60;;;19.20;99.90;;;;;;6247413;28;20159;-81
2022/10/05 08:36:12;;;;;;;12.65;5.57;;;19.90;99.90;;;;;;6248815;28;20041;-81
2022/10/05 08:39:18;;;;;;;12.80;4.95;;;20.70;99.00;;;;;;6248351;28;20053;-81
2022/10/05 08:42:59;;;;;;;7.55;4.47;;;21.40;97.70;;;;;;6248056;28;20057;-81
2022/10/05 08:46:24;;;;;;;8.57;4.82;;;21.90;95.70;;;;;;6244626;28;20128;-82
2022/10/05 08:49:56;;;;;;;9.55;4.78;;;22.40;94.60;;;;;;6247899;28;20052;-81
2022/10/05 08:53:18;;;;;;;7.07;5.15;;;22.90;93.50;;;;;;6246980;28;20052;-82
2022/10/05 08:56:30;;;;;;;8.07;3.85;;;23.60;91.80;;;;;;6248006;28;20108;-82
2022/10/05 09:00:07;;;;;;;9.30;3.25;;;24.20;90.40;;;;;;6248117;28;20049;-82
2022/10/05 09:03:23;;;;;;;5.25;3.05;;;24.80;87.50;;;;;;6247370;28;20045;-82
2022/10/05 09:07:06;;;;;;;6.38;3.83;;;25.10;84.30;;;;;;6246819;28;20528;-82
2022/10/05 09:10:48;;;;;;;7.53;3.05;;;25.30;82.90;;;;;;6231930;28;20053;-81
2022/10/05 09:14:14;;;;;;;5.80;3.08;;;25.20;81.00;;;;;;6246001;28;20056;-81
2022/10/05 09:17:41;;;;;;;5.75;2.50;;;25.20;80.40;;;;;;6246226;28;20422;-82
2022/10/05 09:20:51;;;;;;;7.30;3.08;;;25.20;79.20;;;;;;6247404;28;20049;-81
2022/10/05 09:24:05;;;;;;;3.83;2.45;;;25.00;79.00;;;;;;6246848;28;20138;-81
2022/10/05 09:27:13;;;;;;;8.10;3.75;;;24.80;79.60;;;;;;6249793;28;20060;-81
2022/10/05 09:30:25;;;;;;;5.07;3.47;;;24.80;79.60;;;;;;6251013;28;20041;-81
2022/10/05 09:33:43;;;;;;;3.45;2.17;;;24.80;80.10;;;;;;6251754;28;20507;-81
2022/10/05 09:37:18;;;;;;;7.50;2.75;;;24.70;79.20;;;;;;6251034;28;20049;-81
2022/10/05 09:41:00;;;;;;;5.80;3.20;;;24.80;79.90;;;;;;6251544;28;20073;-82
2022/10/05 09:44:35;;;;;;;4.45;3.35;;;25.10;79.00;;;;;;6250374;28;20041;-82
2022/10/05 09:47:58;;;;;;;5.95;2.88;;;25.30;77.90;;;;;;6250454;28;20465;-81
2022/10/05 09:51:44;;;;;;;8.50;3.00;;;25.60;77.50;;;;;;6250856;28;20052;-81
2022/10/05 09:55:22;;;;;;;5.75;3.08;;;26.00;76.00;;;;;;6250607;28;20052;-81
2022/10/05 09:59:08;;;;;;;4.10;2.42;;;26.30;75.00;;;;;;6236504;28;20077;-81
2022/10/05 10:02:23;;;;;;;3.60;2.33;;;26.60;74.00;;;;;;6213016;28;20038;-81
2022/10/05 10:05:47;;;;;;;6.40;2.42;;;26.80;72.80;;;;;;6227058;28;20046;-81
2022/10/05 10:09:05;;;;;;;3.08;2.72;;;26.90;71.80;;;;;;6216732;28;20053;-82
2022/10/05 10:12:32;;;;;;;4.25;2.58;;;27.10;71.60;;;;;;6226897;28;20046;-82
2022/10/05 10:16:03;;;;;;;2.78;2.10;;;27.20;70.10;;;;;;6224217;28;20420;-81
2022/10/05 10:19:24;;;;;;;2.65;1.77;;;27.40;69.20;;;;;;6226093;28;20100;-82
2022/10/05 10:22:57;;;;;;;2.53;1.60;;;27.60;68.70;;;;;;6223629;28;20100;-82
2022/10/05 10:26:47;;;;;;;4.95;1.52;;;27.80;67.80;;;;;;6225722;28;20187;-81
2022/10/05 10:30:17;;;;;;;6.18;2.13;;;28.10;66.60;;;;;;6206942;28;20084;-82
2022/10/05 10:33:55;;;;;;;3.60;2.15;;;28.20;66.00;;;;;;6222053;28;20511;-83
2022/10/05 10:37:20;;;;;;;4.72;1.85;;;28.50;66.30;;;;;;6222476;28;20053;-83
2022/10/05 10:40:42;;;;;;;2.65;1.58;;;28.60;66.00;;;;;;6226637;28;20046;-82
2022/10/05 10:44:18;;;;;;;4.18;1.42;;;28.80;64.10;;;;;;6225010;28;20389;-82
2022/10/05 10:48:01;;;;;;;3.50;1.35;;;29.00;63.80;;;;;;6226936;28;20049;-82
2022/10/05 10:51:22;;;;;;;3.50;1.30;;;29.20;62.90;;;;;;6211347;28;20065;-81
2022/10/05 10:55:05;;;;;;;1.55;0.90;;;29.40;61.80;;;;;;6226167;28;20050;-82
2022/10/05 10:58:47;;;;;;;5.82;1.35;;;29.40;62.30;;;;;;6225908;28;20519;-82
2022/10/05 11:02:04;;;;;;;2.03;1.02;;;29.60;61.80;;;;;;6210196;28;20046;-82
2022/10/05 11:05:30;;;;;;;4.47;1.50;;;29.80;60.80;;;;;;6220161;28;20041;-80
2022/10/05 11:09:08;;;;;;;2.25;0.98;;;29.90;60.00;;;;;;6225108;28;20042;-80
2022/10/05 11:12:47;;;;;;;5.38;1.15;;;29.90;60.70;;;;;;6225524;28;20046;-79
2022/10/05 11:16:21;;;;;;;2.45;1.08;;;30.00;60.00;;;;;;6203068;28;20054;-80
2022/10/05 11:20:05;;;;;;;1.73;1.15;;;30.00;60.20;;;;;;6225966;28;20053;-79
2022/10/05 11:23:25;;;;;;;3.40;1.30;;;30.00;58.50;;;;;;6214905;28;20143;-79
2022/10/05 11:26:51;;;;;;;3.08;0.95;;;29.60;59.70;;;;;;6225276;28;20046;-79
2022/10/05 11:30:20;;;;;;;1.88;0.88;;;29.60;59.90;;;;;;6224266;28;20037;-80
2022/10/05 11:33:42;;;;;;;5.93;1.10;;;29.80;60.20;;;;;;6219668;28;20057;-79
2022/10/05 11:37:08;;;;;;;1.95;0.85;;;30.10;59.70;;;;;;6226114;28;20057;-79
2022/10/05 11:40:49;;;;;;;1.35;0.68;;;30.30;58.90;;;;;;6224610;28;20431;-80
2022/10/05 11:44:32;;;;;;;4.15;0.60;;;30.40;58.40;;;;;;6225655;28;20053;-80
2022/10/05 11:47:43;;;;;;;4.40;0.85;;;30.40;59.00;;;;;;6149354;28;20055;-79
2022/10/05 11:50:59;;;;;;;1.60;0.98;;;30.60;58.60;;;;;;6172660;28;20482;-80
2022/10/05 11:54:16;;;;;;;4.18;1.00;;;30.60;58.30;;;;;;6249197;28;20474;-81
2022/10/05 11:57:22;;;;;;;4.20;1.90;;;30.80;57.60;;;;;;6253855;28;20073;-81
2022/10/05 12:00:27;;;;;;;4.10;0.93;;;30.90;57.20;;;;;;6256779;28;20056;-81
2022/10/05 12:03:42;;;;;;;1.38;0.68;;;30.90;55.10;;;;;;6286726;22;20049;-81
2022/10/05 12:07:01;;;;;;;0.55;0.40;;;30.60;54.90;;;;;;6250121;28;20045;-82
2022/10/05 12:10:18;;;;;;;6.50;1.27;;;30.30;55.80;;;;;;6249741;28;20056;-80
2022/10/05 12:13:32;;;;;;;2.22;0.70;;;30.30;56.60;;;;;;6267451;28;20057;-80
2022/10/05 12:16:43;;;;;;;13.88;1.20;;;30.30;56.60;;;;;;6274028;28;20053;-81
2022/10/05 12:19:51;;;;;;;2.55;0.70;;;30.50;56.40;;;;;;6273934;28;20060;-82
2022/10/05 12:22:57;;;;;;;1.10;0.45;;;30.60;56.30;;;;;;6274645;28;20068;-81
2022/10/05 12:26:04;;;;;;;6.10;2.88;;;30.70;55.70;;;;;;6273757;28;20513;-80
2022/10/05 12:29:13;;;;;;;6.68;0.68;;;30.80;55.70;;;;;;6266324;28;20052;-79
2022/10/05 12:32:21;;;;;;;1.65;0.40;;;30.90;55.40;;;;;;6273126;28;20045;-81
2022/10/05 12:35:30;;;;;;;3.85;0.80;;;30.70;54.40;;;;;;6274380;28;20053;-80
2022/10/05 12:38:37;;;;;;;1.65;0.50;;;30.60;55.10;;;;;;6298970;28;20071;-79
2022/10/05 12:41:44;;;;;;;2.67;0.75;;;30.50;55.20;;;;;;6294668;28;20063;-81
2022/10/05 12:45:10;;;;;;;2.25;0.90;;;30.60;55.50;;;;;;6277482;28;20060;-82
2022/10/05 12:48:41;;;;;;;1.67;0.52;;;30.70;54.90;;;;;;6277187;28;20052;-83
2022/10/05 12:51:50;;;;;;;3.08;0.50;;;30.60;55.20;;;;;;6277702;28;20151;-82
2022/10/05 12:55:01;;;;;;;2.30;0.93;;;30.60;55.60;;;;;;6275994;28;20041;-83
2022/10/05 12:58:18;;;;;;;1.23;0.60;;;30.80;54.80;;;;;;6275424;28;20064;-83
2022/10/05 13:01:33;;;;;;;4.13;0.80;;;30.90;54.60;;;;;;6263097;28;20045;-82
2022/10/05 13:04:42;;;;;;;1.02;0.50;;;31.00;54.90;;;;;;6277900;28;20517;-82
2022/10/05 13:08:07;;;;;;;2.22;0.52;;;31.10;54.40;;;;;;6276733;28;20060;-81
2022/10/05 13:11:16;;;;;;;0.80;0.50;;;31.10;55.10;;;;;;6277008;28;20049;-81
2022/10/05 13:14:42;;;;;;;2.88;0.55;;;31.30;54.00;;;;;;6280488;28;20047;-82
2022/10/05 13:17:52;;;;;;;1.02;0.50;;;31.40;53.00;;;;;;6280823;28;20098;-82
2022/10/05 13:21:03;;;;;;;2.03;0.50;;;31.20;53.30;;;;;;6279743;28;20075;-81
2022/10/05 13:24:13;;;;;;;1.88;0.47;;;31.10;53.60;;;;;;6285067;28;20044;-82
2022/10/05 13:27:23;;;;;;;1.15;0.80;;;31.00;53.60;;;;;;6280093;28;20426;-82
2022/10/05 13:30:25;;;;;;;3.42;0.77;;;31.00;53.90;;;;;;6278370;28;20441;-82
2022/10/05 13:33:42;;;;;;;1.60;0.77;;;31.00;54.70;;;;;;6278609;28;20051;-82
2022/10/05 13:36:54;;;;;;;6.47;1.95;;;31.10;55.00;;;;;;6279429;28;20045;-82
2022/10/05 13:40:05;;;;;;;6.00;1.10;;;31.20;53.40;;;;;;6278619;28;20056;-82
2022/10/05 13:43:17;;;;;;;4.50;1.52;;;31.20;53.10;;;;;;6279902;28;20049;-81
2022/10/05 13:46:28;;;;;;;5.05;2.65;;;31.20;53.70;;;;;;6279446;28;20052;-82
2022/10/05 13:49:38;;;;;;;5.13;0.75;;;31.30;53.60;;;;;;6277574;28;20045;-81
2022/10/05 13:52:48;;;;;;;3.00;1.17;;;31.10;52.40;;;;;;6277605;28;20053;-81
2022/10/05 13:55:58;;;;;;;2.85;0.50;;;31.00;53.40;;;;;;6279174;28;20055;-81
2022/10/05 13:59:10;;;;;;;2.38;0.70;;;30.80;53.80;;;;;;6279023;28;20060;-81
2022/10/05 14:02:19;;;;;;;1.33;0.55;;;30.50;53.00;;;;;;6273335;28;20041;-82
2022/10/05 14:05:23;;;;;;;3.03;0.95;;;30.30;53.20;;;;;;6266014;28;20049;-82
2022/10/05 14:08:28;;;;;;;2.90;0.73;;;30.20;53.00;;;;;;6259073;28;20045;-83
2022/10/05 14:11:33;;;;;;;1.45;0.52;;;30.20;53.30;;;;;;6259650;28;20050;-82
2022/10/05 14:14:45;;;;;;;2.85;0.75;;;30.10;53.10;;;;;;6257187;28;20052;-83
2022/10/05 14:17:50;;;;;;;3.63;1.35;;;29.90;53.40;;;;;;6256626;28;20072;-82
2022/10/05 14:21:03;;;;;;;2.28;0.68;;;30.00;53.60;;;;;;6253230;28;20049;-82
2022/10/05 14:24:19;;;;;;;2.30;0.88;;;30.10;53.20;;;;;;6261481;28;20101;-80
2022/10/05 14:27:24;;;;;;;4.18;0.93;;;29.90;52.20;;;;;;6274752;28;20049;-82
2022/10/05 14:30:27;;;;;;;1.33;0.52;;;29.60;53.00;;;;;;6279777;28;20045;-82
2022/10/05 14:33:31;;;;;;;2.78;0.93;;;29.60;52.40;;;;;;6277785;28;20053;-82
2022/10/05 14:36:38;;;;;;;4.85;2.95;;;29.50;52.50;;;;;;6276238;28;20045;-81
2022/10/05 14:39:42;;;;;;;4.30;1.02;;;29.40;52.40;;;;;;6275740;28;20053;-82
2022/10/05 14:42:45;;;;;;;3.83;2.00;;;29.30;52.30;;;;;;6276010;28;20045;-82
2022/10/05 14:45:54;;;;;;;1.58;0.55;;;29.20;53.00;;;;;;6276508;28;20047;-80
2022/10/05 14:49:19;;;;;;;1.90;0.70;;;29.10;52.20;;;;;;6276745;28;20053;-82
2022/10/05 14:52:31;;;;;;;2.05;0.50;;;29.00;52.70;;;;;;6277406;28;20064;-81
2022/10/05 14:55:54;;;;;;;2.92;0.60;;;29.10;52.80;;;;;;6273858;28;20049;-81
2022/10/05 14:59:14;;;;;;;1.23;0.40;;;29.10;52.80;;;;;;6276020;28;20124;-82
2022/10/05 15:02:38;;;;;;;4.15;0.32;;;29.10;52.80;;;;;;6270183;28;20495;-82
2022/10/05 15:05:46;;;;;;;0.68;0.50;;;29.10;52.50;;;;;;6275411;28;20494;-82
2022/10/05 15:09:07;;;;;;;0.80;0.40;;;29.00;53.20;;;;;;6276412;28;20052;-82
2022/10/05 15:12:18;;;;;;;0.50;0.30;;;28.90;53.00;;;;;;6278127;28;20045;-81
2022/10/05 15:15:27;;;;;;;1.23;0.28;;;28.60;52.80;;;;;;6277018;28;20049;-82
2022/10/05 15:18:37;;;;;;;1.77;0.60;;;28.40;53.80;;;;;;6276213;28;20068;-81
2022/10/05 15:21:54;;;;;;;2.40;0.60;;;28.00;54.50;;;;;;6277192;28;20051;-81
2022/10/05 15:25:04;;;;;;;3.35;0.50;;;27.60;54.70;;;;;;6274751;28;20044;-83
2022/10/05 15:28:15;;;;;;;0.70;0.38;;;27.30;55.60;;;;;;6274884;28;20057;-83
2022/10/05 15:31:29;;;;;;;2.33;0.28;;;27.00;56.00;;;;;;6279559;28;20132;-83
2022/10/05 15:34:39;;;;;;;4.03;0.63;;;26.60;56.90;;;;;;6278228;28;20506;-82
2022/10/05 15:37:44;;;;;;;1.55;0.70;;;26.30;57.70;;;;;;6275480;28;20051;-82
2022/10/05 15:40:53;;;;;;;28.13;1.42;;;26.10;58.30;;;;;;6275307;28;20422;-80
2022/10/05 15:44:09;;;;;;;3.28;0.40;;;25.90;58.20;;;;;;6276245;28;20045;-82
2022/10/05 15:47:18;;;;;;;6.55;0.90;;;25.70;58.90;;;;;;6276768;28;20056;-82
2022/10/05 15:50:25;;;;;;;1.27;0.50;;;25.40;59.40;;;;;;6276556;28;20048;-82
2022/10/05 15:53:34;;;;;;;4.53;0.50;;;25.30;60.10;;;;;;6277647;28;20055;-83
2022/10/05 15:56:38;;;;;;;3.00;0.57;;;25.10;60.30;;;;;;6281968;28;20049;-83
2022/10/05 15:59:49;;;;;;;3.03;0.50;;;25.00;60.50;;;;;;6280360;28;20052;-84
2022/10/05 16:03:00;;;;;;;2.60;0.35;;;24.90;60.80;;;;;;6282912;28;20037;-79
2022/10/05 16:09:44;;;;;;;2.03;0.60;;;24.60;60.80;;;;;;6261970;28;20041;-82
2022/10/05 16:12:51;;;;;;;;;;;24.50;61.90;;;;;;6256841;28;20045;-82
2022/10/05 16:16:00;;;;;;;3.13;0.65;;;24.40;62.30;;;;;;6254396;28;19921;-82
2022/10/05 16:19:11;;;;;;;3.25;0.30;;;24.30;62.80;;;;;;6254321;28;20053;-83
2022/10/05 16:22:21;;;;;;;0.65;0.30;;;24.10;63.00;;;;;;6252203;28;20049;-81
2022/10/05 16:25:31;;;;;;;2.50;0.85;;;24.00;63.60;;;;;;6253829;28;20121;-83
2022/10/05 16:28:46;;;;;;;2.47;0.30;;;23.90;64.30;;;;;;6256713;28;20053;-82
2022/10/05 16:31:56;;;;;;;7.25;0.80;;;23.80;64.40;;;;;;6277934;28;20052;-82
2022/10/05 16:35:12;;;;;;;3.05;0.68;;;23.70;65.10;;;;;;6278618;28;20049;-82
2022/10/05 16:38:25;;;;;;;2.85;0.80;;;23.60;66.00;;;;;;6273068;28;20136;-81
2022/10/05 16:41:34;;;;;;;2.40;0.65;;;23.50;66.30;;;;;;6281960;28;20049;-82
2022/10/05 16:44:43;;;;;;;1.73;0.60;;;23.30;67.00;;;;;;6283374;28;20051;-83
2022/10/05 16:47:53;;;;;;;4.97;0.82;;;23.20;68.00;;;;;;6275747;28;20049;-83
2022/10/05 16:51:12;;;;;;;2.63;1.13;;;23.10;68.50;;;;;;6278410;28;20414;-82
2022/10/05 16:54:18;;;;;;;17.88;9.63;;;22.90;69.60;;;;;;6285679;28;20057;-81
2022/10/05 16:57:22;;;;;;;13.90;4.70;;;22.70;69.50;;;;;;6287785;28;20048;-82
2022/10/05 17:00:29;;;;;;;1.55;0.80;;;22.50;70.30;;;;;;6282909;28;20059;-81